Time;durP1;ratioP1;P1;durP2;ratioP2;P2;SDS_P1;SDS_P2;PMS_P1;PMS_P2;Temp;Humidity;BMP_temperature;BMP_pressure;BME280_temperature;BME280_humidity;BME280_pressure;Samples;Min_cycle;Max_cycle;Signal;HPM_P1;HPM_P2
2023/06/25 00:01:19;;;;;;;;;;;;;;;;;;5172906;27;2073;-56
2023/06/25 00:03:46;;;;;;;;;;;;;;;;;;5173553;27;2075;-55
2023/06/25 00:06:13;;;;;;;;;;;;;;;;;;5172213;27;2031;-51
2023/06/25 00:08:40;;;;;;;;;;;;;;;;;;5173351;27;2120;-52
2023/06/25 00:11:07;;;;;;;;;;;;;;;;;;5173289;27;2306;-55
2023/06/25 00:13:35;;;;;;;;;;;;;;;;;;5173063;27;2263;-52
2023/06/25 00:16:02;;;;;;;;;;;;;;;;;;5173024;27;2104;-53
2023/06/25 00:18:29;;;;;;;;;;;;;;;;;;5172956;27;2168;-54
2023/06/25 00:20:56;;;;;;;;;;;;;;;;;;5172976;27;2182;-53
2023/06/25 00:23:24;;;;;;;;;;;;;;;;;;5172840;27;2298;-53
2023/06/25 00:25:51;;;;;;;;;;;;;;;;;;5172766;27;2014;-51
2023/06/25 00:28:19;;;;;;;;;;;;;;;;;;5172704;27;2112;-43
2023/06/25 00:30:46;;;;;;;;;;;;;;;;;;5172883;27;2133;-41
2023/06/25 00:33:13;;;;;;;;;;;;;;;;;;5154378;27;2138;-49
2023/06/25 00:35:59;;;;;;;;;;;;;;;;;;5173049;27;2511;-54
2023/06/25 00:38:28;;;;;;;;;;;;;;;;;;5172575;27;2131;-48
2023/06/25 00:40:55;;;;;;;;;;;;;;;;;;5172432;27;2061;-52
2023/06/25 00:43:22;;;;;;;;;;;;;;;;;;5172624;27;2016;-55
2023/06/25 00:45:51;;;;;;;;;;;;;;;;;;5172391;27;2445;-51
2023/06/25 00:48:21;;;;;;;;;;;;;;;;;;5153956;27;2328;-52
2023/06/25 00:50:49;;;;;;;;;;;;;;;;;;5153614;27;2115;-57
2023/06/25 00:53:16;;;;;;;;;;;;;;;;;;5172331;27;2078;-55
2023/06/25 00:55:51;;;;;;;;;;;;;;;;;;5154038;27;2207;-57
2023/06/25 00:58:22;;;;;;;;;;;;;;;;;;5153805;27;2045;-52
2023/06/25 01:00:52;;;;;;;;;;;;;;;;;;5172423;27;2091;-54
2023/06/25 01:03:26;;;;;;;;;;;;;;;;;;5172400;27;1947;-56
2023/06/25 01:06:20;;;;;;;;;;;;;;;;;;5171915;27;1979;-50
2023/06/25 01:08:50;;;;;;;;;;;;;;;;;;5166975;27;2070;-53
2023/06/25 01:11:18;;;;;;;;;;;;;;;;;;5153753;27;2399;-52
2023/06/25 01:13:45;;;;;;;;;;;;;;;;;;5172481;27;2068;-54
2023/06/25 01:16:12;;;;;;;;;;;;;;;;;;5172493;27;2067;-50
2023/06/25 01:18:39;;;;;;;;;;;;;;;;;;5173628;27;2495;-54
2023/06/25 01:21:23;;;;;;;;;;;;;;;;;;5176700;27;2097;-57
2023/06/25 01:23:51;;;;;;;;;;;;;;;;;;5174916;27;2183;-55
2023/06/25 01:26:18;;;;;;;;;;;;;;;;;;5157646;27;2303;-54
2023/06/25 01:28:45;;;;;;;;;;;;;;;;;;5176300;27;1888;-57
2023/06/25 01:31:12;;;;;;;;;;;;;;;;;;5176594;27;1857;-52
2023/06/25 01:33:40;;;;;;;;;;;;;;;;;;5176378;27;2014;-54
2023/06/25 01:36:07;;;;;;;;;;;;;;;;;;5176209;27;2057;-55
2023/06/25 01:38:34;;;;;;;;;;;;;;;;;;5176058;27;2119;-53
2023/06/25 01:41:02;;;;;;;;;;;;;;;;;;5176101;27;2030;-55
2023/06/25 01:43:30;;;;;;;;;;;;;;;;;;5156875;27;2278;-55
2023/06/25 01:45:57;;;;;;;;;;;;;;;;;;5175975;27;2027;-53
2023/06/25 01:48:25;;;;;;;;;;;;;;;;;;5157419;27;2092;-57
2023/06/25 01:50:53;;;;;;;;;;;;;;;;;;5155905;27;2105;-49
2023/06/25 01:53:20;;;;;;;;;;;;;;;;;;5175883;27;1984;-56
2023/06/25 01:55:47;;;;;;;;;;;;;;;;;;5157115;27;2228;-56
2023/06/25 01:58:14;;;;;;;;;;;;;;;;;;5157590;27;2057;-54
2023/06/25 02:00:42;;;;;;;;;;;;;;;;;;5156835;27;1984;-57
2023/06/25 02:03:09;;;;;;;;;;;;;;;;;;5156870;27;2237;-55
2023/06/25 02:05:36;;;;;;;;;;;;;;;;;;5175633;27;2048;-56
2023/06/25 02:08:04;;;;;;;;;;;;;;;;;;5153202;27;2044;-53
2023/06/25 02:10:32;;;;;;;;;;;;;;;;;;5175439;27;2026;-54
2023/06/25 02:12:59;;;;;;;;;;;;;;;;;;5156970;27;2257;-53
2023/06/25 02:15:27;;;;;;;;;;;;;;;;;;5156805;27;1973;-52
2023/06/25 02:17:54;;;;;;;;;;;;;;;;;;5175719;27;1909;-54
2023/06/25 02:20:21;;;;;;;;;;;;;;;;;;5156503;27;1980;-57
2023/06/25 02:22:50;;;;;;;;;;;;;;;;;;5175461;27;1884;-53
2023/06/25 02:25:17;;;;;;;;;;;;;;;;;;5175475;27;1873;-56
2023/06/25 02:27:44;;;;;;;;;;;;;;;;;;5175026;27;1905;-57
2023/06/25 02:30:11;;;;;;;;;;;;;;;;;;5155940;27;2037;-57
2023/06/25 02:32:39;;;;;;;;;;;;;;;;;;5175079;27;2164;-52
2023/06/25 02:35:08;;;;;;;;;;;;;;;;;;5175262;27;1894;-51
2023/06/25 02:37:35;;;;;;;;;;;;;;;;;;5174923;27;2094;-57
2023/06/25 02:40:02;;;;;;;;;;;;;;;;;;5155756;27;2535;-54
2023/06/25 02:42:30;;;;;;;;;;;;;;;;;;5156306;27;2219;-53
2023/06/25 02:44:58;;;;;;;;;;;;;;;;;;5175164;27;2061;-50
2023/06/25 02:47:27;;;;;;;;;;;;;;;;;;5174469;27;2527;-53
2023/06/25 02:49:54;;;;;;;;;;;;;;;;;;5174563;27;2205;-52
2023/06/25 02:52:21;;;;;;;;;;;;;;;;;;5156232;27;1823;-56
2023/06/25 02:54:49;;;;;;;;;;;;;;;;;;5156181;27;1901;-57
2023/06/25 02:57:18;;;;;;;;;;;;;;;;;;5155914;27;2095;-56
2023/06/25 02:59:45;;;;;;;;;;;;;;;;;;5174563;27;2050;-55
2023/06/25 03:02:12;;;;;;;;;;;;;;;;;;5155911;27;2146;-57
2023/06/25 03:04:40;;;;;;;;;;;;;;;;;;5155694;27;1921;-55
2023/06/25 03:07:07;;;;;;;;;;;;;;;;;;5171682;27;1978;-50
2023/06/25 03:09:34;;;;;;;;;;;;;;;;;;5155720;27;2097;-52
2023/06/25 03:12:01;;;;;;;;;;;;;;;;;;5174693;27;1818;-55
2023/06/25 03:14:29;;;;;;;;;;;;;;;;;;5173178;27;1897;-51
2023/06/25 03:17:02;;;;;;;;;;;;;;;;;;5155434;27;2133;-56
2023/06/25 03:19:30;;;;;;;;;;;;;;;;;;5155372;27;2217;-52
2023/06/25 03:21:57;;;;;;;;;;;;;;;;;;5155629;27;1854;-56
2023/06/25 03:24:26;;;;;;;;;;;;;;;;;;5155193;27;2240;-57
2023/06/25 03:26:53;;;;;;;;;;;;;;;;;;5171953;27;1959;-57
2023/06/25 03:29:20;;;;;;;;;;;;;;;;;;5155197;27;1998;-51
2023/06/25 03:31:48;;;;;;;;;;;;;;;;;;5154979;27;1945;-55
2023/06/25 03:34:18;;;;;;;;;;;;;;;;;;5155140;27;2269;-48
2023/06/25 03:36:46;;;;;;;;;;;;;;;;;;5173789;27;1925;-56
2023/06/25 03:39:13;;;;;;;;;;;;;;;;;;5174011;27;1988;-51
2023/06/25 03:41:41;;;;;;;;;;;;;;;;;;5154238;27;2082;-55
2023/06/25 03:44:08;;;;;;;;;;;;;;;;;;5173950;27;2051;-56
2023/06/25 03:46:36;;;;;;;;;;;;;;;;;;5154894;27;2002;-55
2023/06/25 03:49:04;;;;;;;;;;;;;;;;;;5154907;27;2253;-52
2023/06/25 03:51:34;;;;;;;;;;;;;;;;;;5154661;27;2177;-50
2023/06/25 03:54:03;;;;;;;;;;;;;;;;;;5150794;27;2299;-56
2023/06/25 03:56:30;;;;;;;;;;;;;;;;;;5151450;27;2132;-54
2023/06/25 03:58:57;;;;;;;;;;;;;;;;;;5152491;27;2020;-51
2023/06/25 04:01:25;;;;;;;;;;;;;;;;;;5151398;27;2608;-55
2023/06/25 04:03:52;;;;;;;;;;;;;;;;;;5151475;27;2087;-57
2023/06/25 04:06:19;;;;;;;;;;;;;;;;;;5150634;27;2156;-51
2023/06/25 04:08:46;;;;;;;;;;;;;;;;;;5152752;27;2006;-48
2023/06/25 04:11:14;;;;;;;;;;;;;;;;;;5150640;27;2033;-55
2023/06/25 04:13:41;;;;;;;;;;;;;;;;;;5150924;27;1938;-48
2023/06/25 04:16:12;;;;;;;;;;;;;;;;;;5151097;27;2244;-55
2023/06/25 04:18:42;;;;;;;;;;;;;;;;;;5150644;27;2398;-49
2023/06/25 04:21:10;;;;;;;;;;;;;;;;;;5150842;27;2124;-53
2023/06/25 04:23:37;;;;;;;;;;;;;;;;;;5150751;27;1917;-54
2023/06/25 04:26:05;;;;;;;;;;;;;;;;;;5150833;27;1926;-57
2023/06/25 04:28:32;;;;;;;;;;;;;;;;;;5150796;27;2121;-53
2023/06/25 04:31:01;;;;;;;;;;;;;;;;;;5150448;27;2211;-53
2023/06/25 04:33:29;;;;;;;;;;;;;;;;;;5150910;27;2289;-52
2023/06/25 04:35:56;;;;;;;;;;;;;;;;;;5150746;27;2341;-57
2023/06/25 04:38:24;;;;;;;;;;;;;;;;;;5151849;27;2586;-58
2023/06/25 04:40:51;;;;;;;;;;;;;;;;;;5149353;27;1992;-56
2023/06/25 04:43:18;;;;;;;;;;;;;;;;;;5151987;27;2162;-53
2023/06/25 04:45:46;;;;;;;;;;;;;;;;;;5151694;27;2151;-58
2023/06/25 04:48:13;;;;;;;;;;;;;;;;;;5150419;27;2244;-57
2023/06/25 04:50:40;;;;;;;;;;;;;;;;;;5150433;27;2107;-52
2023/06/25 04:53:07;;;;;;;;;;;;;;;;;;5151224;27;2110;-55
2023/06/25 04:55:35;;;;;;;;;;;;;;;;;;5171526;27;2180;-49
2023/06/25 04:58:03;;;;;;;;;;;;;;;;;;5172065;27;2194;-49
2023/06/25 05:00:30;;;;;;;;;;;;;;;;;;5172306;27;2163;-50
2023/06/25 05:02:57;;;;;;;;;;;;;;;;;;5172513;27;2543;-52
2023/06/25 05:05:24;;;;;;;;;;;;;;;;;;5172629;27;2096;-57
2023/06/25 05:07:52;;;;;;;;;;;;;;;;;;5172271;27;2543;-58
2023/06/25 05:10:20;;;;;;;;;;;;;;;;;;5172416;27;2059;-58
2023/06/25 05:12:47;;;;;;;;;;;;;;;;;;5172513;27;2304;-57
2023/06/25 05:15:15;;;;;;;;;;;;;;;;;;5172236;27;2321;-50
2023/06/25 05:17:42;;;;;;;;;;;;;;;;;;5172391;27;2261;-57
2023/06/25 05:20:09;;;;;;;;;;;;;;;;;;5172145;27;2566;-53
2023/06/25 05:22:36;;;;;;;;;;;;;;;;;;5172274;27;2200;-54
2023/06/25 05:25:04;;;;;;;;;;;;;;;;;;5172150;27;2063;-56
2023/06/25 05:27:31;;;;;;;;;;;;;;;;;;5172157;27;2346;-55
2023/06/25 05:29:58;;;;;;;;;;;;;;;;;;5172469;27;2229;-52
2023/06/25 05:32:25;;;;;;;;;;;;;;;;;;5172111;27;2415;-49
2023/06/25 05:34:53;;;;;;;;;;;;;;;;;;5172196;27;1995;-58
2023/06/25 05:37:20;;;;;;;;;;;;;;;;;;5172319;27;2296;-56
2023/06/25 05:39:47;;;;;;;;;;;;;;;;;;5171975;27;2449;-49
2023/06/25 05:42:14;;;;;;;;;;;;;;;;;;5171960;27;2171;-53
2023/06/25 05:44:41;;;;;;;;;;;;;;;;;;5172066;27;2524;-50
2023/06/25 05:47:08;;;;;;;;;;;;;;;;;;5171864;27;2275;-57
2023/06/25 05:49:36;;;;;;;;;;;;;;;;;;5172089;27;1963;-54
2023/06/25 05:52:04;;;;;;;;;;;;;;;;;;5171709;27;2381;-43
2023/06/25 05:54:31;;;;;;;;;;;;;;;;;;5172079;27;1968;-57
2023/06/25 05:56:58;;;;;;;;;;;;;;;;;;5172011;27;2446;-55
2023/06/25 05:59:26;;;;;;;;;;;;;;;;;;5171968;27;2177;-49
2023/06/25 06:01:53;;;;;;;;;;;;;;;;;;5171784;27;2109;-56
2023/06/25 06:04:20;;;;;;;;;;;;;;;;;;5173014;27;2215;-53
2023/06/25 06:06:47;;;;;;;;;;;;;;;;;;5175090;27;2065;-56
2023/06/25 06:09:15;;;;;;;;;;;;;;;;;;5175318;27;2277;-52
2023/06/25 06:11:42;;;;;;;;;;;;;;;;;;5157248;27;2190;-56
2023/06/25 06:14:09;;;;;;;;;;;;;;;;;;5175434;27;2469;-51
2023/06/25 06:16:36;;;;;;;;;;;;;;;;;;5175472;27;2001;-52
2023/06/25 06:19:04;;;;;;;;;;;;;;;;;;5175667;27;2195;-56
2023/06/25 06:21:31;;;;;;;;;;;;;;;;;;5175395;27;2305;-51
2023/06/25 06:23:58;;;;;;;;;;;;;;;;;;5175386;27;2200;-54
2023/06/25 06:26:26;;;;;;;;;;;;;;;;;;5175536;27;2234;-56
2023/06/25 06:28:53;;;;;;;;;;;;;;;;;;5174906;27;2033;-48
2023/06/25 06:31:21;;;;;;;;;;;;;;;;;;5175399;27;2119;-55
2023/06/25 06:33:48;;;;;;;;;;;;;;;;;;5175122;27;2143;-56
2023/06/25 06:36:16;;;;;;;;;;;;;;;;;;5175220;27;2005;-57
2023/06/25 06:38:44;;;;;;;;;;;;;;;;;;5174889;27;2227;-52
2023/06/25 06:41:11;;;;;;;;;;;;;;;;;;5174672;27;2063;-50
2023/06/25 06:43:38;;;;;;;;;;;;;;;;;;5175079;27;2066;-52
2023/06/25 06:46:05;;;;;;;;;;;;;;;;;;5173638;27;2020;-56
2023/06/25 06:48:34;;;;;;;;;;;;;;;;;;5174794;27;2230;-56
2023/06/25 06:51:01;;;;;;;;;;;;;;;;;;5174799;27;1998;-51
2023/06/25 06:53:29;;;;;;;;;;;;;;;;;;5174670;27;2325;-56
2023/06/25 06:55:56;;;;;;;;;;;;;;;;;;5174835;27;1754;-55
2023/06/25 06:58:23;;;;;;;;;;;;;;;;;;5174656;27;1880;-55
2023/06/25 07:00:50;;;;;;;;;;;;;;;;;;5174788;27;1929;-51
2023/06/25 07:03:17;;;;;;;;;;;;;;;;;;5174611;27;2096;-56
2023/06/25 07:05:45;;;;;;;;;;;;;;;;;;5174392;27;1899;-54
2023/06/25 07:08:13;;;;;;;;;;;;;;;;;;5172919;27;1906;-53
2023/06/25 07:10:40;;;;;;;;;;;;;;;;;;5174180;27;2048;-52
2023/06/25 07:13:07;;;;;;;;;;;;;;;;;;5174532;27;1956;-57
2023/06/25 07:15:35;;;;;;;;;;;;;;;;;;5174506;27;1930;-54
2023/06/25 07:18:03;;;;;;;;;;;;;;;;;;5174129;27;2030;-52
2023/06/25 07:20:30;;;;;;;;;;;;;;;;;;5174499;27;1958;-54
2023/06/25 07:22:57;;;;;;;;;;;;;;;;;;5173768;27;1960;-51
2023/06/25 07:25:24;;;;;;;;;;;;;;;;;;5174393;27;2182;-56
2023/06/25 07:27:52;;;;;;;;;;;;;;;;;;5138180;27;2163;-47
2023/06/25 07:30:19;;;;;;;;;;;;;;;;;;5173838;27;2479;-55
2023/06/25 07:32:46;;;;;;;;;;;;;;;;;;5173980;27;2135;-54
2023/06/25 07:35:13;;;;;;;;;;;;;;;;;;5173917;27;2077;-56
2023/06/25 07:37:41;;;;;;;;;;;;;;;;;;5173826;27;1948;-47
2023/06/25 07:40:08;;;;;;;;;;;;;;;;;;5174028;27;2082;-55
2023/06/25 07:42:35;;;;;;;;;;;;;;;;;;5173963;27;2082;-54
2023/06/25 07:45:02;;;;;;;;;;;;;;;;;;5173846;27;1966;-53
2023/06/25 07:47:30;;;;;;;;;;;;;;;;;;5173752;27;2059;-53
2023/06/25 07:49:57;;;;;;;;;;;;;;;;;;5173800;27;2001;-47
2023/06/25 07:52:25;;;;;;;;;;;;;;;;;;5154641;27;2069;-49
2023/06/25 07:54:53;;;;;;;;;;;;;;;;;;5173449;27;1920;-46
2023/06/25 07:57:20;;;;;;;;;;;;;;;;;;5173603;27;1995;-50
2023/06/25 07:59:48;;;;;;;;;;;;;;;;;;5173628;27;1858;-51
2023/06/25 08:02:19;;;;;;;;;;;;;;;;;;5173612;27;2226;-53
2023/06/25 08:04:46;;;;;;;;;;;;;;;;;;5173114;27;2067;-53
2023/06/25 08:07:14;;;;;;;;;;;;;;;;;;5173331;27;2018;-56
2023/06/25 08:09:41;;;;;;;;;;;;;;;;;;5173630;27;2064;-54
2023/06/25 08:12:08;;;;;;;;;;;;;;;;;;5173199;27;2195;-53
2023/06/25 08:14:36;;;;;;;;;;;;;;;;;;5173411;27;2277;-50
2023/06/25 08:17:03;;;;;;;;;;;;;;;;;;5173063;27;2436;-52
2023/06/25 08:19:30;;;;;;;;;;;;;;;;;;5173062;27;2150;-55
2023/06/25 08:21:57;;;;;;;;;;;;;;;;;;5173239;27;2148;-52
2023/06/25 08:24:25;;;;;;;;;;;;;;;;;;5172739;27;2432;-50
2023/06/25 08:26:52;;;;;;;;;;;;;;;;;;5172800;27;1998;-52
2023/06/25 08:29:20;;;;;;;;;;;;;;;;;;5172717;27;2338;-55
2023/06/25 08:31:47;;;;;;;;;;;;;;;;;;5172542;27;1947;-53
2023/06/25 08:34:14;;;;;;;;;;;;;;;;;;5173004;27;2215;-47
2023/06/25 08:36:41;;;;;;;;;;;;;;;;;;5172750;27;2445;-54
2023/06/25 08:39:09;;;;;;;;;;;;;;;;;;5173195;27;1988;-52
2023/06/25 08:41:36;;;;;;;;;;;;;;;;;;5172516;27;2468;-48
2023/06/25 08:44:03;;;;;;;;;;;;;;;;;;5173006;27;2190;-52
2023/06/25 08:46:32;;;;;;;;;;;;;;;;;;5172635;27;2354;-53
2023/06/25 08:49:00;;;;;;;;;;;;;;;;;;5171521;27;2001;-54
2023/06/25 08:51:27;;;;;;;;;;;;;;;;;;5172806;27;2106;-52
2023/06/25 08:53:56;;;;;;;;;;;;;;;;;;5172427;27;1874;-52
2023/06/25 08:56:23;;;;;;;;;;;;;;;;;;5172730;27;2076;-51
2023/06/25 08:58:50;;;;;;;;;;;;;;;;;;5172527;27;1807;-51
2023/06/25 09:01:18;;;;;;;;;;;;;;;;;;5172259;27;1763;-50
2023/06/25 09:03:45;;;;;;;;;;;;;;;;;;5172665;27;2142;-55
2023/06/25 09:06:14;;;;;;;;;;;;;;;;;;5172287;27;1816;-54
2023/06/25 09:08:42;;;;;;;;;;;;;;;;;;5172782;27;2060;-51
2023/06/25 09:11:10;;;;;;;;;;;;;;;;;;5172464;27;1703;-53
2023/06/25 09:13:38;;;;;;;;;;;;;;;;;;5172396;27;2221;-56
2023/06/25 09:16:10;;;;;;;;;;;;;;;;;;5172828;27;1884;-54
2023/06/25 09:18:37;;;;;;;;;;;;;;;;;;5172402;27;2006;-54
2023/06/25 09:21:08;;;;;;;;;;;;;;;;;;5172592;27;2091;-55
2023/06/25 09:23:37;;;;;;;;;;;;;;;;;;5172178;27;2068;-56
2023/06/25 09:26:09;;;;;;;;;;;;;;;;;;5172345;27;2008;-52
2023/06/25 09:28:52;;;;;;;;;;;;;;;;;;5172130;27;2028;-53
2023/06/25 09:31:20;;;;;;;;;;;;;;;;;;5168349;27;2174;-56
2023/06/25 09:33:53;;;;;;;;;;;;;;;;;;5172377;27;2145;-53
2023/06/25 09:36:21;;;;;;;;;;;;;;;;;;5172198;27;2078;-56
2023/06/25 09:38:52;;;;;;;;;;;;;;;;;;5172423;27;2020;-55
2023/06/25 09:41:20;;;;;;;;;;;;;;;;;;5176246;27;2593;-51
2023/06/25 09:43:48;;;;;;;;;;;;;;;;;;5176636;27;2003;-54
2023/06/25 09:46:17;;;;;;;;;;;;;;;;;;5176431;27;2205;-55
2023/06/25 09:48:45;;;;;;;;;;;;;;;;;;5176161;27;2317;-55
2023/06/25 09:51:14;;;;;;;;;;;;;;;;;;5176165;27;2103;-52
2023/06/25 09:53:43;;;;;;;;;;;;;;;;;;5175712;27;2273;-54
2023/06/25 09:56:13;;;;;;;;;;;;;;;;;;5176007;27;2015;-50
2023/06/25 09:58:41;;;;;;;;;;;;;;;;;;5175518;27;2474;-53
2023/06/25 10:01:08;;;;;;;;;;;;;;;;;;5175879;27;2095;-52
2023/06/25 10:03:36;;;;;;;;;;;;;;;;;;5175689;27;1992;-48
2023/06/25 10:06:03;;;;;;;;;;;;;;;;;;5156704;27;2211;-54
2023/06/25 10:08:32;;;;;;;;;;;;;;;;;;5175756;27;2232;-58
2023/06/25 10:11:00;;;;;;;;;;;;;;;;;;5175492;27;2071;-50
2023/06/25 10:13:28;;;;;;;;;;;;;;;;;;5175503;27;1862;-50
2023/06/25 10:16:02;;;;;;;;;;;;;;;;;;5175777;27;1990;-54
2023/06/25 10:18:30;;;;;;;;;;;;;;;;;;5175594;27;1948;-53
2023/06/25 10:20:58;;;;;;;;;;;;;;;;;;5175866;27;2143;-54
2023/06/25 10:23:26;;;;;;;;;;;;;;;;;;5175480;27;2004;-55
2023/06/25 10:25:56;;;;;;;;;;;;;;;;;;5175541;27;2217;-55
2023/06/25 10:28:36;;;;;;;;;;;;;;;;;;5156610;27;2108;-53
2023/06/25 10:31:13;;;;;;;;;;;;;;;;;;5175535;27;2217;-53
2023/06/25 10:33:40;;;;;;;;;;;;;;;;;;5175446;27;1952;-54
2023/06/25 10:36:10;;;;;;;;;;;;;;;;;;5175134;27;1949;-56
2023/06/25 10:38:38;;;;;;;;;;;;;;;;;;5175068;27;2051;-50
2023/06/25 10:41:05;;;;;;;;;;;;;;;;;;5174944;27;1885;-54
2023/06/25 10:43:35;;;;;;;;;;;;;;;;;;5175390;27;2023;-49
2023/06/25 10:46:03;;;;;;;;;;;;;;;;;;5174678;27;2237;-49
2023/06/25 10:48:30;;;;;;;;;;;;;;;;;;5175107;27;1910;-53
2023/06/25 10:50:58;;;;;;;;;;;;;;;;;;5174372;27;2072;-53
2023/06/25 10:53:25;;;;;;;;;;;;;;;;;;5174677;27;1974;-52
2023/06/25 10:55:53;;;;;;;;;;;;;;;;;;5175095;27;1813;-53
2023/06/25 10:58:23;;;;;;;;;;;;;;;;;;5175032;27;1888;-48
2023/06/25 11:00:57;;;;;;;;;;;;;;;;;;5175002;27;2089;-49
2023/06/25 11:03:24;;;;;;;;;;;;;;;;;;5174441;27;1987;-46
2023/06/25 11:05:52;;;;;;;;;;;;;;;;;;5174866;27;1864;-56
2023/06/25 11:08:23;;;;;;;;;;;;;;;;;;5172864;27;2096;-52
2023/06/25 11:10:50;;;;;;;;;;;;;;;;;;5174927;27;1738;-51
2023/06/25 11:13:18;;;;;;;;;;;;;;;;;;5174381;27;2136;-57
2023/06/25 11:15:45;;;;;;;;;;;;;;;;;;5174274;27;1973;-52
2023/06/25 11:18:12;;;;;;;;;;;;;;;;;;5174404;27;2125;-54
2023/06/25 11:20:40;;;;;;;;;;;;;;;;;;5174123;27;2497;-53
2023/06/25 11:23:10;;;;;;;;;;;;;;;;;;5174617;27;2007;-54
2023/06/25 11:25:38;;;;;;;;;;;;;;;;;;5174273;27;1984;-53
2023/06/25 11:28:11;;;;;;;;;;;;;;;;;;5173140;27;2122;-53
2023/06/25 11:30:39;;;;;;;;;;;;;;;;;;5173949;27;2133;-51
2023/06/25 11:33:07;;;;;;;;;;;;;;;;;;5173856;27;2172;-55
2023/06/25 11:35:34;;;;;;;;;;;;;;;;;;5174239;27;2231;-56
2023/06/25 11:38:02;;;;;;;;;;;;;;;;;;5173793;27;2587;-52
2023/06/25 11:40:30;;;;;;;;;;;;;;;;;;5170858;27;2014;-56
2023/06/25 11:42:57;;;;;;;;;;;;;;;;;;5173926;27;2097;-55
2023/06/25 11:45:37;;;;;;;;;;;;;;;;;;5172466;27;2096;-52
2023/06/25 11:48:11;;;;;;;;;;;;;;;;;;5173607;27;2141;-49
2023/06/25 11:50:38;;;;;;;;;;;;;;;;;;5173093;27;2246;-56
2023/06/25 11:53:06;;;;;;;;;;;;;;;;;;5168477;27;1953;-49
2023/06/25 11:55:33;;;;;;;;;;;;;;;;;;5173063;27;2534;-55
2023/06/25 11:58:00;;;;;;;;;;;;;;;;;;5174078;27;1969;-52
2023/06/25 12:00:28;;;;;;;;;;;;;;;;;;5172041;27;2318;-54
2023/06/25 12:02:55;;;;;;;;;;;;;;;;;;5173025;27;2131;-51
2023/06/25 12:05:23;;;;;;;;;;;;;;;;;;5173777;27;2138;-53
2023/06/25 12:07:50;;;;;;;;;;;;;;;;;;5171841;27;2333;-50
2023/06/25 12:10:17;;;;;;;;;;;;;;;;;;5173419;27;2400;-50
2023/06/25 12:12:45;;;;;;;;;;;;;;;;;;5172777;27;2029;-59
2023/06/25 12:15:12;;;;;;;;;;;;;;;;;;5173516;27;1848;-53
2023/06/25 12:17:42;;;;;;;;;;;;;;;;;;5173236;27;2243;-53
2023/06/25 12:20:09;;;;;;;;;;;;;;;;;;5172483;27;1706;-53
2023/06/25 12:22:36;;;;;;;;;;;;;;;;;;5173170;27;1959;-56
2023/06/25 12:25:04;;;;;;;;;;;;;;;;;;5172835;27;1955;-52
2023/06/25 12:27:31;;;;;;;;;;;;;;;;;;5173205;27;1850;-50
2023/06/25 12:29:58;;;;;;;;;;;;;;;;;;5173328;27;2013;-56
2023/06/25 12:32:25;;;;;;;;;;;;;;;;;;5173200;27;2182;-45
2023/06/25 12:34:53;;;;;;;;;;;;;;;;;;5173189;27;2246;-50
2023/06/25 12:37:20;;;;;;;;;;;;;;;;;;5172782;27;2084;-56
2023/06/25 12:39:48;;;;;;;;;;;;;;;;;;5172696;27;1955;-53
2023/06/25 12:42:15;;;;;;;;;;;;;;;;;;5172670;27;1888;-55
2023/06/25 12:44:42;;;;;;;;;;;;;;;;;;5172689;27;1986;-51
2023/06/25 12:47:09;;;;;;;;;;;;;;;;;;5172861;27;2040;-53
2023/06/25 12:49:37;;;;;;;;;;;;;;;;;;5172517;27;2162;-53
2023/06/25 12:52:04;;;;;;;;;;;;;;;;;;5172656;27;2485;-54
2023/06/25 12:54:32;;;;;;;;;;;;;;;;;;5172458;27;2126;-54
2023/06/25 12:56:59;;;;;;;;;;;;;;;;;;5172795;27;2308;-54
2023/06/25 12:59:27;;;;;;;;;;;;;;;;;;5172864;27;2003;-53
2023/06/25 13:01:58;;;;;;;;;;;;;;;;;;5172700;27;2122;-54
2023/06/25 13:04:26;;;;;;;;;;;;;;;;;;5172831;27;2083;-51
2023/06/25 13:06:54;;;;;;;;;;;;;;;;;;5170649;27;1995;-52
2023/06/25 13:09:23;;;;;;;;;;;;;;;;;;5153749;27;2077;-54
2023/06/25 13:11:50;;;;;;;;;;;;;;;;;;5172124;27;2001;-54
2023/06/25 13:14:17;;;;;;;;;;;;;;;;;;5175283;27;2239;-53
2023/06/25 13:16:45;;;;;;;;;;;;;;;;;;5176654;27;2138;-43
2023/06/25 13:19:12;;;;;;;;;;;;;;;;;;5174641;27;2014;-48
2023/06/25 13:21:40;;;;;;;;;;;;;;;;;;5176138;27;2301;-56
2023/06/25 13:24:07;;;;;;;;;;;;;;;;;;5176264;27;1949;-48
2023/06/25 13:26:34;;;;;;;;;;;;;;;;;;5176305;27;2310;-51
2023/06/25 13:29:02;;;;;;;;;;;;;;;;;;5175958;27;2122;-55
2023/06/25 13:31:29;;;;;;;;;;;;;;;;;;5176444;27;2100;-50
2023/06/25 13:33:57;;;;;;;;;;;;;;;;;;5175308;27;2439;-57
2023/06/25 13:36:24;;;;;;;;;;;;;;;;;;5176033;27;2363;-55
2023/06/25 13:38:52;;;;;;;;;;;;;;;;;;5175656;27;2479;-43
2023/06/25 13:41:19;;;;;;;;;;;;;;;;;;5176113;27;2084;-52
2023/06/25 13:43:47;;;;;;;;;;;;;;;;;;5175843;27;2176;-54
2023/06/25 13:46:14;;;;;;;;;;;;;;;;;;5176174;27;2197;-56
2023/06/25 13:48:42;;;;;;;;;;;;;;;;;;5176171;27;2077;-53
2023/06/25 13:51:09;;;;;;;;;;;;;;;;;;5175872;27;2128;-42
2023/06/25 13:53:36;;;;;;;;;;;;;;;;;;5174182;27;2079;-40
2023/06/25 13:56:03;;;;;;;;;;;;;;;;;;5174474;27;2210;-50
2023/06/25 13:58:31;;;;;;;;;;;;;;;;;;5175944;27;2073;-54
2023/06/25 14:00:58;;;;;;;;;;;;;;;;;;5175336;27;2063;-53
2023/06/25 14:03:25;;;;;;;;;;;;;;;;;;5175474;27;2075;-57
2023/06/25 14:05:52;;;;;;;;;;;;;;;;;;5175563;27;1699;-47
2023/06/25 14:08:20;;;;;;;;;;;;;;;;;;5173946;27;2005;-53
2023/06/25 14:10:47;;;;;;;;;;;;;;;;;;5175275;27;2180;-52
2023/06/25 14:13:15;;;;;;;;;;;;;;;;;;5175443;27;2011;-48
2023/06/25 14:15:42;;;;;;;;;;;;;;;;;;5174901;27;2512;-47
2023/06/25 14:18:11;;;;;;;;;;;;;;;;;;5175520;27;2401;-53
2023/06/25 14:20:38;;;;;;;;;;;;;;;;;;5175149;27;2096;-54
2023/06/25 14:23:05;;;;;;;;;;;;;;;;;;5175183;27;2066;-44
2023/06/25 14:25:32;;;;;;;;;;;;;;;;;;5174690;27;2134;-53
2023/06/25 14:28:00;;;;;;;;;;;;;;;;;;5174526;27;2531;-47
2023/06/25 14:30:27;;;;;;;;;;;;;;;;;;5175175;27;2016;-48
2023/06/25 14:32:55;;;;;;;;;;;;;;;;;;5174592;27;2055;-51
2023/06/25 14:35:22;;;;;;;;;;;;;;;;;;5175154;27;2102;-64
2023/06/25 14:37:49;;;;;;;;;;;;;;;;;;5175077;27;2008;-53
2023/06/25 14:40:16;;;;;;;;;;;;;;;;;;5174433;27;2567;-50
2023/06/25 14:42:43;;;;;;;;;;;;;;;;;;5173694;27;2366;-53
2023/06/25 14:45:12;;;;;;;;;;;;;;;;;;5174434;27;2317;-56
2023/06/25 14:47:39;;;;;;;;;;;;;;;;;;5174540;27;2081;-56
2023/06/25 14:50:06;;;;;;;;;;;;;;;;;;5174776;27;2258;-56
2023/06/25 14:52:34;;;;;;;;;;;;;;;;;;5174447;27;2063;-52
2023/06/25 14:55:01;;;;;;;;;;;;;;;;;;5174243;27;2574;-48
2023/06/25 14:57:28;;;;;;;;;;;;;;;;;;5174283;27;2097;-50
2023/06/25 14:59:57;;;;;;;;;;;;;;;;;;5174427;27;2187;-55
2023/06/25 15:02:25;;;;;;;;;;;;;;;;;;5174687;27;2125;-55
2023/06/25 15:04:52;;;;;;;;;;;;;;;;;;5174100;27;2305;-57
2023/06/25 15:07:20;;;;;;;;;;;;;;;;;;5171258;27;2267;-56
2023/06/25 15:09:47;;;;;;;;;;;;;;;;;;5174070;27;2116;-54
2023/06/25 15:12:14;;;;;;;;;;;;;;;;;;5174141;27;2183;-52
2023/06/25 15:14:42;;;;;;;;;;;;;;;;;;5174082;27;1636;-48
2023/06/25 15:17:11;;;;;;;;;;;;;;;;;;5124269;27;11514;-54
2023/06/25 15:19:38;;;;;;;;;;;;;;;;;;5100325;28;2468;-54
2023/06/25 15:22:06;;;;;;;;;;;;;;;;;;5111787;28;1870;-54
2023/06/25 15:24:33;;;;;;;;;;;;;;;;;;5111611;28;2224;-49
2023/06/25 15:27:03;;;;;;;;;;;;;;;;;;5111622;28;2350;-54
2023/06/25 15:29:31;;;;;;;;;;;;;;;;;;5111581;28;2050;-53
2023/06/25 15:31:58;;;;;;;;;;;;;;;;;;5111804;28;2324;-53
2023/06/25 15:34:26;;;;;;;;;;;;;;;;;;5111823;28;2393;-54
2023/06/25 15:36:53;;;;;;;;;;;;;;;;;;5109980;28;2329;-46
2023/06/25 15:39:20;;;;;;;;;;;;;;;;;;5111613;28;2124;-46
2023/06/25 15:41:48;;;;;;;;;;;;;;;;;;5111528;28;2235;-51
2023/06/25 15:44:17;;;;;;;;;;;;;;;;;;5111505;28;2062;-52
2023/06/25 15:46:45;;;;;;;;;;;;;;;;;;5109616;28;1974;-54
2023/06/25 15:49:12;;;;;;;;;;;;;;;;;;5111384;28;2068;-53
2023/06/25 15:51:40;;;;;;;;;;;;;;;;;;5110954;28;2279;-54
2023/06/25 15:54:08;;;;;;;;;;;;;;;;;;5108766;28;2225;-48
2023/06/25 15:56:51;;;;;;;;;;;;;;;;;;5109838;28;1997;-51
2023/06/25 15:59:18;;;;;;;;;;;;;;;;;;5111406;28;2265;-46
2023/06/25 16:01:46;;;;;;;;;;;;;;;;;;5110759;28;2034;-52
2023/06/25 16:04:13;;;;;;;;;;;;;;;;;;5111284;28;2281;-51
2023/06/25 16:06:41;;;;;;;;;;;;;;;;;;5108643;28;2457;-46
2023/06/25 16:09:09;;;;;;;;;;;;;;;;;;5110848;28;2159;-47
2023/06/25 16:11:37;;;;;;;;;;;;;;;;;;5111305;28;2458;-47
2023/06/25 16:14:05;;;;;;;;;;;;;;;;;;5111165;28;2291;-45
2023/06/25 16:16:33;;;;;;;;;;;;;;;;;;5110452;28;2259;-50
2023/06/25 16:19:01;;;;;;;;;;;;;;;;;;5110647;28;2253;-52
2023/06/25 16:21:49;;;;;;;;;;;;;;;;;;5110201;28;2449;-49
2023/06/25 16:24:16;;;;;;;;;;;;;;;;;;5110596;28;2113;-54
2023/06/25 16:26:44;;;;;;;;;;;;;;;;;;5110573;28;2146;-47
2023/06/25 16:29:12;;;;;;;;;;;;;;;;;;5110420;28;2229;-52
2023/06/25 16:31:40;;;;;;;;;;;;;;;;;;5110638;28;1961;-51
2023/06/25 16:34:08;;;;;;;;;;;;;;;;;;5111165;28;2312;-56
2023/06/25 16:36:36;;;;;;;;;;;;;;;;;;5110586;28;2296;-52
2023/06/25 16:39:04;;;;;;;;;;;;;;;;;;5110832;28;2259;-53
2023/06/25 16:41:33;;;;;;;;;;;;;;;;;;5108917;28;2362;-54
2023/06/25 16:44:00;;;;;;;;;;;;;;;;;;5110341;28;2180;-52
2023/06/25 16:46:27;;;;;;;;;;;;;;;;;;5110708;28;2427;-54
2023/06/25 16:48:55;;;;;;;;;;;;;;;;;;5109534;28;2451;-54
2023/06/25 16:51:22;;;;;;;;;;;;;;;;;;5110733;28;2534;-55
2023/06/25 16:53:51;;;;;;;;;;;;;;;;;;5108586;28;2390;-54
2023/06/25 16:56:18;;;;;;;;;;;;;;;;;;5108627;28;2185;-52
2023/06/25 16:58:47;;;;;;;;;;;;;;;;;;5109552;28;2311;-54
2023/06/25 17:01:15;;;;;;;;;;;;;;;;;;5110305;28;2585;-51
2023/06/25 17:03:43;;;;;;;;;;;;;;;;;;5110355;28;2542;-54
2023/06/25 17:06:10;;;;;;;;;;;;;;;;;;5109336;28;2430;-53
2023/06/25 17:08:39;;;;;;;;;;;;;;;;;;5109541;28;2188;-54